This is the latest recevied weather packets stored in our database for station/object HA6IFZ-10. If no packets are shown the sender has not sent any weather packets the latest 10 day(s).
| Time | Temp. | Humidity | Pressure | Rain* | Wind** | Luminosity | Snow |
|---|---|---|---|---|---|---|---|
| 1787581976 | 28.89° C | 25% | 1027 hPa | - | - | - | - |
| 1787581075 | 28.89° C | 26% | 1026.3 hPa | - | - | - | - |
| 1787580175 | 29.44° C | 26% | 1027.2 hPa | - | - | - | - |
| 1787579275 | 30° C | 24% | 1027.3 hPa | - | - | - | - |
| 1787578375 | 28.89° C | 26% | 1027.3 hPa | - | - | - | - |
| 1787577475 | 29.44° C | 26% | 1027.5 hPa | - | - | - | - |
| 1787576574 | 30° C | 26% | 1027.5 hPa | - | - | - | - |
| 1787575674 | 28.89° C | 27% | 1027.5 hPa | - | - | - | - |
| 1787574774 | 29.44° C | 26% | 1027.7 hPa | - | - | - | - |
| 1787573874 | 28.33° C | 27% | 1027.9 hPa | - | - | - | - |
| 1787572974 | 27.78° C | 28% | 1028 hPa | - | - | - | - |
| 1787572074 | 27.78° C | 28% | 1028 hPa | - | - | - | - |
| 1787571174 | 28.33° C | 27% | 1028.2 hPa | - | - | - | - |
| 1787570274 | 28.33° C | 28% | 1028.2 hPa | - | - | - | - |
| 1787568478 | 29.44° C | 24% | 1028.3 hPa | - | - | - | - |
| 1787567578 | 27.78° C | 26% | 1028.5 hPa | - | - | - | - |
| 1787566677 | 28.33° C | 26% | 1028.6 hPa | - | - | - | - |
| 1787565777 | 27.22° C | 28% | 1028.6 hPa | - | - | - | - |
| 1787564877 | 27.78° C | 26% | 1028.8 hPa | - | - | - | - |
| 1787563977 | 26.11° C | 28% | 1028.9 hPa | - | - | - | - |
| 1787563077 | 27.22° C | 28% | 1028.8 hPa | - | - | - | - |
| 1787562177 | 26.67° C | 28% | 1028.9 hPa | - | - | - | - |
| 1787561277 | 26.67° C | 28% | 1029.2 hPa | - | - | - | - |
| 1787560377 | 25.56° C | 30% | 1029.1 hPa | - | - | - | - |
| 1787559477 | 25° C | 30% | 1029.1 hPa | - | - | - | - |
* Rain since midnight (hover to see other rain measurements)
** Current wind speed in m/s (hover to see current wind gust speed)